sensor_id;sensor_type;location;lat;lon;timestamp;P1;durP1;ratioP1;P2;durP2;ratioP2
7919;SDS011;18778;47.610;9.776;2023-03-23T00:01:51;9.43;;;7.27;;
7919;SDS011;18778;47.610;9.776;2023-03-23T00:04:17;8.07;;;7.10;;
7919;SDS011;18778;47.610;9.776;2023-03-23T00:06:43;7.13;;;6.43;;
7919;SDS011;18778;47.610;9.776;2023-03-23T00:09:10;9.13;;;7.57;;
7919;SDS011;18778;47.610;9.776;2023-03-23T00:11:37;10.73;;;7.40;;
7919;SDS011;18778;47.610;9.776;2023-03-23T00:14:04;9.33;;;7.13;;
7919;SDS011;18778;47.610;9.776;2023-03-23T00:16:31;9.40;;;6.73;;
7919;SDS011;18778;47.610;9.776;2023-03-23T00:18:59;8.43;;;7.00;;
7919;SDS011;18778;47.610;9.776;2023-03-23T00:21:33;8.87;;;7.23;;
7919;SDS011;18778;47.610;9.776;2023-03-23T00:24:08;8.60;;;6.87;;
7919;SDS011;18778;47.610;9.776;2023-03-23T00:26:36;9.70;;;7.67;;
7919;SDS011;18778;47.610;9.776;2023-03-23T00:29:06;9.47;;;6.63;;
7919;SDS011;18778;47.610;9.776;2023-03-23T00:31:39;7.23;;;6.50;;
7919;SDS011;18778;47.610;9.776;2023-03-23T00:34:05;11.07;;;7.20;;
7919;SDS011;18778;47.610;9.776;2023-03-23T00:36:32;8.40;;;6.03;;
7919;SDS011;18778;47.610;9.776;2023-03-23T00:39:00;8.70;;;6.53;;
7919;SDS011;18778;47.610;9.776;2023-03-23T00:41:27;11.60;;;6.97;;
7919;SDS011;18778;47.610;9.776;2023-03-23T00:43:54;7.83;;;6.57;;
7919;SDS011;18778;47.610;9.776;2023-03-23T00:46:21;8.53;;;6.37;;
7919;SDS011;18778;47.610;9.776;2023-03-23T00:48:48;7.80;;;6.77;;
7919;SDS011;18778;47.610;9.776;2023-03-23T00:51:15;9.90;;;6.33;;
7919;SDS011;18778;47.610;9.776;2023-03-23T00:53:41;8.07;;;6.83;;
7919;SDS011;18778;47.610;9.776;2023-03-23T00:56:07;11.93;;;6.90;;
7919;SDS011;18778;47.610;9.776;2023-03-23T00:58:34;8.63;;;6.23;;
7919;SDS011;18778;47.610;9.776;2023-03-23T01:01:00;9.33;;;6.57;;
7919;SDS011;18778;47.610;9.776;2023-03-23T01:03:26;8.67;;;5.90;;
7919;SDS011;18778;47.610;9.776;2023-03-23T01:05:53;9.80;;;6.40;;
7919;SDS011;18778;47.610;9.776;2023-03-23T01:08:20;7.83;;;6.80;;
7919;SDS011;18778;47.610;9.776;2023-03-23T01:10:46;8.33;;;6.97;;
7919;SDS011;18778;47.610;9.776;2023-03-23T01:13:12;9.70;;;7.67;;
7919;SDS011;18778;47.610;9.776;2023-03-23T01:15:38;7.30;;;6.60;;
7919;SDS011;18778;47.610;9.776;2023-03-23T01:18:04;7.67;;;6.87;;
7919;SDS011;18778;47.610;9.776;2023-03-23T01:20:30;7.97;;;6.27;;
7919;SDS011;18778;47.610;9.776;2023-03-23T01:22:57;10.07;;;7.20;;
7919;SDS011;18778;47.610;9.776;2023-03-23T01:25:26;6.97;;;6.23;;
7919;SDS011;18778;47.610;9.776;2023-03-23T01:27:53;6.80;;;6.10;;
7919;SDS011;18778;47.610;9.776;2023-03-23T01:30:19;10.37;;;6.50;;
7919;SDS011;18778;47.610;9.776;2023-03-23T01:32:44;8.70;;;6.90;;
7919;SDS011;18778;47.610;9.776;2023-03-23T01:35:12;7.33;;;6.63;;
7919;SDS011;18778;47.610;9.776;2023-03-23T01:37:38;8.87;;;6.30;;
7919;SDS011;18778;47.610;9.776;2023-03-23T01:40:04;9.07;;;6.20;;
7919;SDS011;18778;47.610;9.776;2023-03-23T01:42:31;7.57;;;6.30;;
7919;SDS011;18778;47.610;9.776;2023-03-23T01:48:07;8.13;;;6.70;;
7919;SDS011;18778;47.610;9.776;2023-03-23T01:53:22;7.10;;;6.33;;
7919;SDS011;18778;47.610;9.776;2023-03-23T01:55:51;7.90;;;5.73;;
7919;SDS011;18778;47.610;9.776;2023-03-23T01:58:23;6.87;;;5.63;;
7919;SDS011;18778;47.610;9.776;2023-03-23T02:00:54;7.53;;;6.33;;
7919;SDS011;18778;47.610;9.776;2023-03-23T02:03:24;8.83;;;6.00;;
7919;SDS011;18778;47.610;9.776;2023-03-23T02:05:50;7.43;;;6.17;;
7919;SDS011;18778;47.610;9.776;2023-03-23T02:08:16;7.57;;;5.27;;
7919;SDS011;18778;47.610;9.776;2023-03-23T02:10:43;6.57;;;5.97;;
7919;SDS011;18778;47.610;9.776;2023-03-23T02:13:09;6.23;;;5.63;;
7919;SDS011;18778;47.610;9.776;2023-03-23T02:18:34;6.17;;;5.50;;
7919;SDS011;18778;47.610;9.776;2023-03-23T02:26:48;7.03;;;6.00;;
7919;SDS011;18778;47.610;9.776;2023-03-23T02:29:25;7.37;;;5.63;;
7919;SDS011;18778;47.610;9.776;2023-03-23T02:32:10;7.07;;;5.20;;
7919;SDS011;18778;47.610;9.776;2023-03-23T02:34:56;7.63;;;6.03;;
7919;SDS011;18778;47.610;9.776;2023-03-23T02:39:58;6.83;;;6.13;;
7919;SDS011;18778;47.610;9.776;2023-03-23T02:42:39;7.13;;;6.37;;
7919;SDS011;18778;47.610;9.776;2023-03-23T02:45:09;7.30;;;5.57;;
7919;SDS011;18778;47.610;9.776;2023-03-23T02:47:37;6.97;;;5.50;;
7919;SDS011;18778;47.610;9.776;2023-03-23T02:50:05;6.30;;;5.70;;
7919;SDS011;18778;47.610;9.776;2023-03-23T02:52:34;6.67;;;6.00;;
7919;SDS011;18778;47.610;9.776;2023-03-23T02:55:03;6.63;;;5.63;;
7919;SDS011;18778;47.610;9.776;2023-03-23T02:57:29;7.33;;;5.50;;
7919;SDS011;18778;47.610;9.776;2023-03-23T02:59:55;8.70;;;5.73;;
7919;SDS011;18778;47.610;9.776;2023-03-23T03:04:52;6.17;;;5.57;;
7919;SDS011;18778;47.610;9.776;2023-03-23T03:07:30;7.00;;;6.27;;
7919;SDS011;18778;47.610;9.776;2023-03-23T03:10:06;6.70;;;5.93;;
7919;SDS011;18778;47.610;9.776;2023-03-23T03:12:51;5.87;;;5.37;;
7919;SDS011;18778;47.610;9.776;2023-03-23T03:15:23;8.77;;;5.23;;
7919;SDS011;18778;47.610;9.776;2023-03-23T03:18:00;6.30;;;5.70;;
7919;SDS011;18778;47.610;9.776;2023-03-23T03:20:33;7.10;;;5.60;;
7919;SDS011;18778;47.610;9.776;2023-03-23T03:23:07;7.93;;;6.33;;
7919;SDS011;18778;47.610;9.776;2023-03-23T03:25:37;6.67;;;5.40;;
7919;SDS011;18778;47.610;9.776;2023-03-23T03:28:05;6.03;;;5.37;;
7919;SDS011;18778;47.610;9.776;2023-03-23T03:30:31;6.27;;;5.70;;
7919;SDS011;18778;47.610;9.776;2023-03-23T03:33:00;6.30;;;5.70;;
7919;SDS011;18778;47.610;9.776;2023-03-23T03:35:28;6.67;;;5.90;;
7919;SDS011;18778;47.610;9.776;2023-03-23T03:37:56;7.30;;;5.80;;
7919;SDS011;18778;47.610;9.776;2023-03-23T03:40:22;7.37;;;5.67;;
7919;SDS011;18778;47.610;9.776;2023-03-23T03:42:49;6.87;;;6.17;;
7919;SDS011;18778;47.610;9.776;2023-03-23T03:45:16;7.83;;;6.10;;
7919;SDS011;18778;47.610;9.776;2023-03-23T03:47:43;6.73;;;6.00;;
7919;SDS011;18778;47.610;9.776;2023-03-23T03:50:09;6.10;;;5.50;;
7919;SDS011;18778;47.610;9.776;2023-03-23T03:52:35;9.30;;;5.50;;
7919;SDS011;18778;47.610;9.776;2023-03-23T03:55:03;6.60;;;5.60;;
7919;SDS011;18778;47.610;9.776;2023-03-23T03:57:29;9.17;;;6.07;;
7919;SDS011;18778;47.610;9.776;2023-03-23T03:59:55;6.33;;;5.73;;
7919;SDS011;18778;47.610;9.776;2023-03-23T04:02:21;8.27;;;6.37;;
7919;SDS011;18778;47.610;9.776;2023-03-23T04:04:47;8.47;;;6.43;;
7919;SDS011;18778;47.610;9.776;2023-03-23T04:07:14;8.60;;;6.30;;
7919;SDS011;18778;47.610;9.776;2023-03-23T04:09:43;9.33;;;6.77;;
7919;SDS011;18778;47.610;9.776;2023-03-23T04:12:11;6.77;;;5.80;;
7919;SDS011;18778;47.610;9.776;2023-03-23T04:14:37;8.67;;;6.00;;
7919;SDS011;18778;47.610;9.776;2023-03-23T04:17:03;7.10;;;6.37;;
7919;SDS011;18778;47.610;9.776;2023-03-23T04:19:28;9.30;;;6.47;;
7919;SDS011;18778;47.610;9.776;2023-03-23T04:21:57;7.27;;;6.57;;
7919;SDS011;18778;47.610;9.776;2023-03-23T04:24:24;8.77;;;5.67;;
7919;SDS011;18778;47.610;9.776;2023-03-23T04:26:49;5.67;;;5.00;;
7919;SDS011;18778;47.610;9.776;2023-03-23T04:29:17;5.50;;;5.00;;
7919;SDS011;18778;47.610;9.776;2023-03-23T04:31:43;6.43;;;5.40;;
7919;SDS011;18778;47.610;9.776;2023-03-23T04:34:10;8.27;;;6.10;;
7919;SDS011;18778;47.610;9.776;2023-03-23T04:36:39;6.03;;;5.53;;
7919;SDS011;18778;47.610;9.776;2023-03-23T04:39:05;7.87;;;5.60;;
7919;SDS011;18778;47.610;9.776;2023-03-23T04:41:34;7.97;;;5.10;;
7919;SDS011;18778;47.610;9.776;2023-03-23T04:44:01;8.27;;;6.03;;
7919;SDS011;18778;47.610;9.776;2023-03-23T04:46:27;6.77;;;6.03;;
7919;SDS011;18778;47.610;9.776;2023-03-23T04:48:56;6.13;;;5.50;;
7919;SDS011;18778;47.610;9.776;2023-03-23T04:51:24;6.20;;;5.50;;
7919;SDS011;18778;47.610;9.776;2023-03-23T04:53:51;6.73;;;5.40;;
7919;SDS011;18778;47.610;9.776;2023-03-23T04:56:17;5.77;;;5.27;;
7919;SDS011;18778;47.610;9.776;2023-03-23T04:58:43;6.47;;;5.87;;
7919;SDS011;18778;47.610;9.776;2023-03-23T05:01:10;6.70;;;6.00;;
7919;SDS011;18778;47.610;9.776;2023-03-23T05:03:39;7.63;;;5.70;;
7919;SDS011;18778;47.610;9.776;2023-03-23T05:06:05;5.97;;;5.37;;
7919;SDS011;18778;47.610;9.776;2023-03-23T05:08:31;8.17;;;5.73;;
7919;SDS011;18778;47.610;9.776;2023-03-23T05:10:58;6.63;;;5.93;;
7919;SDS011;18778;47.610;9.776;2023-03-23T05:13:25;6.30;;;5.70;;
7919;SDS011;18778;47.610;9.776;2023-03-23T05:15:52;6.23;;;5.57;;
7919;SDS011;18778;47.610;9.776;2023-03-23T05:18:17;10.30;;;6.37;;
7919;SDS011;18778;47.610;9.776;2023-03-23T05:20:45;7.17;;;5.73;;
7919;SDS011;18778;47.610;9.776;2023-03-23T05:23:11;7.60;;;6.50;;
7919;SDS011;18778;47.610;9.776;2023-03-23T05:25:37;7.37;;;6.37;;
7919;SDS011;18778;47.610;9.776;2023-03-23T05:28:09;12.27;;;7.20;;
7919;SDS011;18778;47.610;9.776;2023-03-23T05:30:38;8.13;;;6.80;;
7919;SDS011;18778;47.610;9.776;2023-03-23T05:33:05;10.83;;;6.90;;
7919;SDS011;18778;47.610;9.776;2023-03-23T05:35:31;7.00;;;6.10;;
7919;SDS011;18778;47.610;9.776;2023-03-23T05:37:57;10.77;;;7.40;;
7919;SDS011;18778;47.610;9.776;2023-03-23T05:40:22;9.10;;;7.03;;
7919;SDS011;18778;47.610;9.776;2023-03-23T05:42:50;9.70;;;7.17;;
7919;SDS011;18778;47.610;9.776;2023-03-23T05:45:16;8.97;;;7.13;;
7919;SDS011;18778;47.610;9.776;2023-03-23T05:47:43;9.30;;;7.00;;
7919;SDS011;18778;47.610;9.776;2023-03-23T05:50:09;8.70;;;7.10;;
7919;SDS011;18778;47.610;9.776;2023-03-23T05:52:36;7.90;;;6.47;;
7919;SDS011;18778;47.610;9.776;2023-03-23T05:55:02;6.70;;;6.10;;
7919;SDS011;18778;47.610;9.776;2023-03-23T05:57:29;7.93;;;6.83;;
7919;SDS011;18778;47.610;9.776;2023-03-23T05:59:55;6.30;;;5.70;;
7919;SDS011;18778;47.610;9.776;2023-03-23T06:02:22;6.60;;;5.67;;
7919;SDS011;18778;47.610;9.776;2023-03-23T06:04:49;7.17;;;5.17;;
7919;SDS011;18778;47.610;9.776;2023-03-23T06:07:15;6.30;;;5.70;;
7919;SDS011;18778;47.610;9.776;2023-03-23T06:09:40;6.80;;;5.03;;
7919;SDS011;18778;47.610;9.776;2023-03-23T06:12:06;6.30;;;5.17;;
7919;SDS011;18778;47.610;9.776;2023-03-23T06:14:34;5.57;;;4.97;;
7919;SDS011;18778;47.610;9.776;2023-03-23T06:17:00;6.07;;;5.47;;
7919;SDS011;18778;47.610;9.776;2023-03-23T06:19:26;7.03;;;5.30;;
7919;SDS011;18778;47.610;9.776;2023-03-23T06:21:52;5.67;;;4.80;;
7919;SDS011;18778;47.610;9.776;2023-03-23T06:24:19;5.50;;;4.90;;
7919;SDS011;18778;47.610;9.776;2023-03-23T06:26:44;8.53;;;5.60;;
7919;SDS011;18778;47.610;9.776;2023-03-23T06:29:10;6.47;;;4.87;;
7919;SDS011;18778;47.610;9.776;2023-03-23T06:31:40;6.17;;;4.80;;
7919;SDS011;18778;47.610;9.776;2023-03-23T06:34:09;5.03;;;4.53;;
7919;SDS011;18778;47.610;9.776;2023-03-23T06:36:36;7.50;;;5.17;;
7919;SDS011;18778;47.610;9.776;2023-03-23T06:39:03;6.37;;;5.03;;
7919;SDS011;18778;47.610;9.776;2023-03-23T06:41:30;5.27;;;4.57;;
7919;SDS011;18778;47.610;9.776;2023-03-23T06:43:56;5.30;;;4.80;;
7919;SDS011;18778;47.610;9.776;2023-03-23T06:46:22;5.40;;;4.67;;
7919;SDS011;18778;47.610;9.776;2023-03-23T06:48:48;4.97;;;4.57;;
7919;SDS011;18778;47.610;9.776;2023-03-23T06:51:15;6.47;;;4.60;;
7919;SDS011;18778;47.610;9.776;2023-03-23T06:53:41;5.37;;;4.83;;
7919;SDS011;18778;47.610;9.776;2023-03-23T06:56:07;6.70;;;4.60;;
7919;SDS011;18778;47.610;9.776;2023-03-23T06:58:33;5.53;;;4.33;;
7919;SDS011;18778;47.610;9.776;2023-03-23T07:00:59;7.97;;;4.63;;
7919;SDS011;18778;47.610;9.776;2023-03-23T07:03:25;5.23;;;4.40;;
7919;SDS011;18778;47.610;9.776;2023-03-23T07:05:52;5.30;;;4.10;;
7919;SDS011;18778;47.610;9.776;2023-03-23T07:08:19;4.30;;;4.00;;
7919;SDS011;18778;47.610;9.776;2023-03-23T07:10:45;4.37;;;3.97;;
7919;SDS011;18778;47.610;9.776;2023-03-23T07:13:11;4.40;;;4.00;;
7919;SDS011;18778;47.610;9.776;2023-03-23T07:15:38;4.40;;;4.00;;
7919;SDS011;18778;47.610;9.776;2023-03-23T07:18:04;5.30;;;4.10;;
7919;SDS011;18778;47.610;9.776;2023-03-23T07:20:30;6.60;;;4.20;;
7919;SDS011;18778;47.610;9.776;2023-03-23T07:22:55;4.33;;;3.93;;
7919;SDS011;18778;47.610;9.776;2023-03-23T07:25:21;5.07;;;4.60;;
7919;SDS011;18778;47.610;9.776;2023-03-23T07:27:46;7.87;;;4.40;;
7919;SDS011;18778;47.610;9.776;2023-03-23T07:30:12;4.80;;;4.40;;
7919;SDS011;18778;47.610;9.776;2023-03-23T07:32:39;5.20;;;4.10;;
7919;SDS011;18778;47.610;9.776;2023-03-23T07:35:05;6.60;;;4.17;;
7919;SDS011;18778;47.610;9.776;2023-03-23T07:37:32;4.30;;;3.90;;
7919;SDS011;18778;47.610;9.776;2023-03-23T07:39:57;4.07;;;3.77;;
7919;SDS011;18778;47.610;9.776;2023-03-23T07:42:23;5.33;;;3.73;;
7919;SDS011;18778;47.610;9.776;2023-03-23T07:44:49;4.53;;;4.13;;
7919;SDS011;18778;47.610;9.776;2023-03-23T07:47:14;4.20;;;3.90;;
7919;SDS011;18778;47.610;9.776;2023-03-23T07:49:40;6.87;;;5.00;;
7919;SDS011;18778;47.610;9.776;2023-03-23T07:52:06;8.43;;;5.10;;
7919;SDS011;18778;47.610;9.776;2023-03-23T07:54:31;15.97;;;8.87;;
7919;SDS011;18778;47.610;9.776;2023-03-23T07:56:57;5.50;;;5.03;;
7919;SDS011;18778;47.610;9.776;2023-03-23T07:59:22;5.00;;;4.60;;
7919;SDS011;18778;47.610;9.776;2023-03-23T08:01:48;5.47;;;4.97;;
7919;SDS011;18778;47.610;9.776;2023-03-23T08:04:14;6.10;;;4.93;;
7919;SDS011;18778;47.610;9.776;2023-03-23T08:06:40;5.87;;;4.80;;
7919;SDS011;18778;47.610;9.776;2023-03-23T08:09:06;6.80;;;5.13;;
7919;SDS011;18778;47.610;9.776;2023-03-23T08:11:36;5.60;;;5.07;;
7919;SDS011;18778;47.610;9.776;2023-03-23T08:14:03;6.57;;;5.87;;
7919;SDS011;18778;47.610;9.776;2023-03-23T08:16:30;6.43;;;5.30;;
7919;SDS011;18778;47.610;9.776;2023-03-23T08:18:56;6.27;;;5.20;;
7919;SDS011;18778;47.610;9.776;2023-03-23T08:21:22;6.97;;;5.60;;
7919;SDS011;18778;47.610;9.776;2023-03-23T08:23:47;5.87;;;5.27;;
7919;SDS011;18778;47.610;9.776;2023-03-23T08:26:13;5.80;;;5.20;;
7919;SDS011;18778;47.610;9.776;2023-03-23T08:28:40;7.23;;;5.40;;
7919;SDS011;18778;47.610;9.776;2023-03-23T08:31:10;5.33;;;4.83;;
7919;SDS011;18778;47.610;9.776;2023-03-23T08:33:37;5.00;;;4.50;;
7919;SDS011;18778;47.610;9.776;2023-03-23T08:36:03;5.27;;;4.53;;
7919;SDS011;18778;47.610;9.776;2023-03-23T08:38:29;5.00;;;4.47;;
7919;SDS011;18778;47.610;9.776;2023-03-23T08:41:02;4.63;;;4.20;;
7919;SDS011;18778;47.610;9.776;2023-03-23T08:43:31;4.97;;;4.30;;
7919;SDS011;18778;47.610;9.776;2023-03-23T08:45:57;5.17;;;3.93;;
7919;SDS011;18778;47.610;9.776;2023-03-23T08:48:24;6.80;;;4.37;;
7919;SDS011;18778;47.610;9.776;2023-03-23T08:50:49;4.90;;;3.80;;
7919;SDS011;18778;47.610;9.776;2023-03-23T08:53:16;4.73;;;3.53;;
7919;SDS011;18778;47.610;9.776;2023-03-23T08:55:42;3.70;;;3.40;;
7919;SDS011;18778;47.610;9.776;2023-03-23T08:58:07;4.53;;;3.80;;
7919;SDS011;18778;47.610;9.776;2023-03-23T09:00:34;4.37;;;3.50;;
7919;SDS011;18778;47.610;9.776;2023-03-23T09:02:59;4.87;;;3.80;;
7919;SDS011;18778;47.610;9.776;2023-03-23T09:05:26;4.53;;;3.50;;
7919;SDS011;18778;47.610;9.776;2023-03-23T09:07:53;4.00;;;3.70;;
7919;SDS011;18778;47.610;9.776;2023-03-23T09:10:20;4.37;;;3.80;;
7919;SDS011;18778;47.610;9.776;2023-03-23T09:12:47;4.10;;;3.70;;
7919;SDS011;18778;47.610;9.776;2023-03-23T09:15:14;4.33;;;3.50;;
7919;SDS011;18778;47.610;9.776;2023-03-23T09:17:42;6.60;;;3.20;;
7919;SDS011;18778;47.610;9.776;2023-03-23T09:20:10;3.33;;;3.03;;
7919;SDS011;18778;47.610;9.776;2023-03-23T09:22:38;4.53;;;3.27;;
7919;SDS011;18778;47.610;9.776;2023-03-23T09:25:06;4.20;;;2.97;;
7919;SDS011;18778;47.610;9.776;2023-03-23T09:27:33;4.07;;;2.90;;
7919;SDS011;18778;47.610;9.776;2023-03-23T09:30:02;3.23;;;2.93;;
7919;SDS011;18778;47.610;9.776;2023-03-23T09:32:31;3.50;;;2.93;;
7919;SDS011;18778;47.610;9.776;2023-03-23T09:34:58;3.40;;;3.10;;
7919;SDS011;18778;47.610;9.776;2023-03-23T09:37:23;6.67;;;2.97;;
7919;SDS011;18778;47.610;9.776;2023-03-23T09:39:49;3.40;;;3.10;;
7919;SDS011;18778;47.610;9.776;2023-03-23T09:42:22;4.10;;;3.00;;
7919;SDS011;18778;47.610;9.776;2023-03-23T09:50:17;3.80;;;3.40;;
7919;SDS011;18778;47.610;9.776;2023-03-23T09:52:56;3.33;;;3.03;;
7919;SDS011;18778;47.610;9.776;2023-03-23T09:55:38;3.80;;;3.17;;
7919;SDS011;18778;47.610;9.776;2023-03-23T09:58:22;3.63;;;2.83;;
7919;SDS011;18778;47.610;9.776;2023-03-23T10:03:36;4.20;;;3.00;;
7919;SDS011;18778;47.610;9.776;2023-03-23T10:06:04;5.07;;;2.87;;
7919;SDS011;18778;47.610;9.776;2023-03-23T10:08:32;3.77;;;3.30;;
7919;SDS011;18778;47.610;9.776;2023-03-23T10:11:01;2.93;;;2.73;;
7919;SDS011;18778;47.610;9.776;2023-03-23T10:16:02;2.87;;;2.63;;
7919;SDS011;18778;47.610;9.776;2023-03-23T10:18:37;4.43;;;2.53;;
7919;SDS011;18778;47.610;9.776;2023-03-23T10:21:22;6.07;;;2.73;;
7919;SDS011;18778;47.610;9.776;2023-03-23T10:29:32;11.27;;;3.30;;
7919;SDS011;18778;47.610;9.776;2023-03-23T10:32:23;2.87;;;2.67;;
7919;SDS011;18778;47.610;9.776;2023-03-23T10:35:20;2.87;;;2.60;;
7919;SDS011;18778;47.610;9.776;2023-03-23T10:37:53;3.27;;;2.30;;
7919;SDS011;18778;47.610;9.776;2023-03-23T10:40:25;3.77;;;2.80;;
7919;SDS011;18778;47.610;9.776;2023-03-23T10:42:54;4.33;;;2.60;;
7919;SDS011;18778;47.610;9.776;2023-03-23T10:45:26;3.30;;;2.60;;
7919;SDS011;18778;47.610;9.776;2023-03-23T10:50:42;2.63;;;2.40;;
7919;SDS011;18778;47.610;9.776;2023-03-23T10:53:15;2.13;;;2.00;;
7919;SDS011;18778;47.610;9.776;2023-03-23T10:55:44;2.40;;;2.20;;
7919;SDS011;18778;47.610;9.776;2023-03-23T10:58:13;2.73;;;2.43;;
7919;SDS011;18778;47.610;9.776;2023-03-23T11:00:48;2.30;;;2.10;;
7919;SDS011;18778;47.610;9.776;2023-03-23T11:05:43;2.60;;;2.40;;
7919;SDS011;18778;47.610;9.776;2023-03-23T11:08:12;2.43;;;2.17;;
7919;SDS011;18778;47.610;9.776;2023-03-23T11:10:41;2.83;;;1.93;;
7919;SDS011;18778;47.610;9.776;2023-03-23T11:13:14;3.23;;;1.93;;
7919;SDS011;18778;47.610;9.776;2023-03-23T11:15:41;2.63;;;2.23;;
7919;SDS011;18778;47.610;9.776;2023-03-23T11:18:12;3.53;;;2.43;;
7919;SDS011;18778;47.610;9.776;2023-03-23T11:20:44;3.80;;;2.37;;
7919;SDS011;18778;47.610;9.776;2023-03-23T11:25:51;2.00;;;1.87;;
7919;SDS011;18778;47.610;9.776;2023-03-23T11:28:25;2.90;;;2.00;;
7919;SDS011;18778;47.610;9.776;2023-03-23T11:30:57;3.57;;;2.00;;
7919;SDS011;18778;47.610;9.776;2023-03-23T11:33:24;2.30;;;2.10;;
7919;SDS011;18778;47.610;9.776;2023-03-23T11:35:53;2.60;;;2.40;;
7919;SDS011;18778;47.610;9.776;2023-03-23T11:38:20;2.33;;;2.13;;
7919;SDS011;18778;47.610;9.776;2023-03-23T11:40:49;2.20;;;2.00;;
7919;SDS011;18778;47.610;9.776;2023-03-23T11:43:23;2.57;;;2.20;;
7919;SDS011;18778;47.610;9.776;2023-03-23T11:48:51;2.47;;;2.17;;
7919;SDS011;18778;47.610;9.776;2023-03-23T11:51:39;2.10;;;2.00;;
7919;SDS011;18778;47.610;9.776;2023-03-23T11:57:06;3.37;;;2.60;;
7919;SDS011;18778;47.610;9.776;2023-03-23T11:59:36;2.97;;;2.77;;
7919;SDS011;18778;47.610;9.776;2023-03-23T12:07:36;2.90;;;2.60;;
7919;SDS011;18778;47.610;9.776;2023-03-23T12:10:43;4.83;;;2.60;;
7919;SDS011;18778;47.610;9.776;2023-03-23T12:13:39;4.33;;;3.10;;
7919;SDS011;18778;47.610;9.776;2023-03-23T12:21:32;4.10;;;2.90;;
7919;SDS011;18778;47.610;9.776;2023-03-23T12:27:00;2.40;;;2.20;;
7919;SDS011;18778;47.610;9.776;2023-03-23T12:41:02;2.90;;;2.10;;
7919;SDS011;18778;47.610;9.776;2023-03-23T12:43:34;2.33;;;1.93;;
7919;SDS011;18778;47.610;9.776;2023-03-23T12:46:22;2.43;;;1.70;;
7919;SDS011;18778;47.610;9.776;2023-03-23T12:49:04;2.40;;;2.00;;
7919;SDS011;18778;47.610;9.776;2023-03-23T12:51:58;3.77;;;2.10;;
7919;SDS011;18778;47.610;9.776;2023-03-23T12:54:32;2.10;;;2.00;;
7919;SDS011;18778;47.610;9.776;2023-03-23T12:57:08;2.93;;;2.10;;
7919;SDS011;18778;47.610;9.776;2023-03-23T12:59:48;4.20;;;2.10;;
7919;SDS011;18778;47.610;9.776;2023-03-23T13:02:29;3.90;;;1.80;;
7919;SDS011;18778;47.610;9.776;2023-03-23T13:05:00;2.27;;;2.10;;
7919;SDS011;18778;47.610;9.776;2023-03-23T13:07:45;3.20;;;2.00;;
7919;SDS011;18778;47.610;9.776;2023-03-23T13:12:44;1.80;;;1.70;;
7919;SDS011;18778;47.610;9.776;2023-03-23T13:21:08;3.13;;;2.17;;
7919;SDS011;18778;47.610;9.776;2023-03-23T13:23:41;1.93;;;1.77;;
7919;SDS011;18778;47.610;9.776;2023-03-23T13:26:13;3.17;;;2.00;;
7919;SDS011;18778;47.610;9.776;2023-03-23T13:31:20;2.20;;;2.10;;
7919;SDS011;18778;47.610;9.776;2023-03-23T13:36:55;4.30;;;1.97;;
7919;SDS011;18778;47.610;9.776;2023-03-23T13:40:13;2.37;;;2.10;;
7919;SDS011;18778;47.610;9.776;2023-03-23T13:42:58;3.03;;;2.30;;
7919;SDS011;18778;47.610;9.776;2023-03-23T13:50:57;2.30;;;1.90;;
7919;SDS011;18778;47.610;9.776;2023-03-23T13:53:29;2.87;;;2.10;;
7919;SDS011;18778;47.610;9.776;2023-03-23T13:58:47;2.63;;;2.27;;
7919;SDS011;18778;47.610;9.776;2023-03-23T14:01:32;2.60;;;2.10;;
7919;SDS011;18778;47.610;9.776;2023-03-23T14:04:00;2.47;;;1.90;;
7919;SDS011;18778;47.610;9.776;2023-03-23T14:06:33;2.07;;;1.97;;
7919;SDS011;18778;47.610;9.776;2023-03-23T14:09:04;2.60;;;2.20;;
7919;SDS011;18778;47.610;9.776;2023-03-23T14:11:54;2.00;;;1.80;;
7919;SDS011;18778;47.610;9.776;2023-03-23T14:14:32;2.10;;;1.90;;
7919;SDS011;18778;47.610;9.776;2023-03-23T14:17:10;1.90;;;1.80;;
7919;SDS011;18778;47.610;9.776;2023-03-23T14:19:42;2.20;;;2.00;;
7919;SDS011;18778;47.610;9.776;2023-03-23T14:22:18;2.43;;;2.23;;
7919;SDS011;18778;47.610;9.776;2023-03-23T14:24:49;3.27;;;2.07;;
7919;SDS011;18778;47.610;9.776;2023-03-23T14:27:16;3.03;;;2.00;;
7919;SDS011;18778;47.610;9.776;2023-03-23T14:29:44;2.27;;;2.17;;
7919;SDS011;18778;47.610;9.776;2023-03-23T14:32:14;3.40;;;2.10;;
7919;SDS011;18778;47.610;9.776;2023-03-23T14:34:43;3.07;;;2.40;;
7919;SDS011;18778;47.610;9.776;2023-03-23T14:37:11;5.47;;;2.80;;
7919;SDS011;18778;47.610;9.776;2023-03-23T14:39:40;2.40;;;2.20;;
7919;SDS011;18778;47.610;9.776;2023-03-23T14:42:15;2.93;;;2.50;;
7919;SDS011;18778;47.610;9.776;2023-03-23T14:44:44;3.93;;;2.63;;
7919;SDS011;18778;47.610;9.776;2023-03-23T14:47:15;2.80;;;2.60;;
7919;SDS011;18778;47.610;9.776;2023-03-23T14:49:47;2.53;;;2.40;;
7919;SDS011;18778;47.610;9.776;2023-03-23T14:52:17;3.57;;;2.57;;
7919;SDS011;18778;47.610;9.776;2023-03-23T14:54:44;2.70;;;2.50;;
7919;SDS011;18778;47.610;9.776;2023-03-23T14:59:44;2.37;;;2.03;;
7919;SDS011;18778;47.610;9.776;2023-03-23T15:05:15;3.07;;;2.20;;
7919;SDS011;18778;47.610;9.776;2023-03-23T15:07:46;3.47;;;2.20;;
7919;SDS011;18778;47.610;9.776;2023-03-23T15:10:17;2.23;;;2.07;;
7919;SDS011;18778;47.610;9.776;2023-03-23T15:12:46;2.47;;;2.27;;
7919;SDS011;18778;47.610;9.776;2023-03-23T15:15:20;2.20;;;2.00;;
7919;SDS011;18778;47.610;9.776;2023-03-23T15:17:49;4.30;;;2.33;;
7919;SDS011;18778;47.610;9.776;2023-03-23T15:20:29;6.90;;;3.13;;
7919;SDS011;18778;47.610;9.776;2023-03-23T15:22:57;6.33;;;3.43;;
7919;SDS011;18778;47.610;9.776;2023-03-23T15:25:32;10.03;;;3.17;;
7919;SDS011;18778;47.610;9.776;2023-03-23T15:30:47;3.07;;;2.87;;
7919;SDS011;18778;47.610;9.776;2023-03-23T15:33:15;3.87;;;2.90;;
7919;SDS011;18778;47.610;9.776;2023-03-23T15:35:48;3.27;;;2.90;;
7919;SDS011;18778;47.610;9.776;2023-03-23T15:41:24;4.40;;;2.60;;
7919;SDS011;18778;47.610;9.776;2023-03-23T15:43:56;3.03;;;2.73;;
7919;SDS011;18778;47.610;9.776;2023-03-23T15:46:24;4.33;;;2.60;;
7919;SDS011;18778;47.610;9.776;2023-03-23T15:48:53;2.80;;;2.47;;
7919;SDS011;18778;47.610;9.776;2023-03-23T15:51:29;3.43;;;3.00;;
7919;SDS011;18778;47.610;9.776;2023-03-23T15:53:56;3.33;;;2.57;;
7919;SDS011;18778;47.610;9.776;2023-03-23T15:56:22;4.07;;;2.83;;
7919;SDS011;18778;47.610;9.776;2023-03-23T15:58:49;4.33;;;2.60;;
7919;SDS011;18778;47.610;9.776;2023-03-23T16:03:50;3.67;;;2.63;;
7919;SDS011;18778;47.610;9.776;2023-03-23T16:06:22;3.40;;;2.37;;
7919;SDS011;18778;47.610;9.776;2023-03-23T16:08:49;2.83;;;2.40;;
7919;SDS011;18778;47.610;9.776;2023-03-23T16:11:16;3.13;;;2.80;;
7919;SDS011;18778;47.610;9.776;2023-03-23T16:13:43;2.80;;;2.60;;
7919;SDS011;18778;47.610;9.776;2023-03-23T16:16:11;2.43;;;2.23;;
7919;SDS011;18778;47.610;9.776;2023-03-23T16:18:40;3.60;;;2.30;;
7919;SDS011;18778;47.610;9.776;2023-03-23T16:21:06;3.47;;;2.63;;
7919;SDS011;18778;47.610;9.776;2023-03-23T16:23:31;3.33;;;2.27;;
7919;SDS011;18778;47.610;9.776;2023-03-23T16:25:57;5.23;;;2.37;;
7919;SDS011;18778;47.610;9.776;2023-03-23T16:28:23;5.57;;;2.30;;
7919;SDS011;18778;47.610;9.776;2023-03-23T16:30:49;5.60;;;2.50;;
7919;SDS011;18778;47.610;9.776;2023-03-23T16:33:14;3.33;;;3.03;;
7919;SDS011;18778;47.610;9.776;2023-03-23T16:35:40;3.83;;;2.30;;
7919;SDS011;18778;47.610;9.776;2023-03-23T16:38:09;4.07;;;2.60;;
7919;SDS011;18778;47.610;9.776;2023-03-23T16:40:38;5.23;;;2.87;;
7919;SDS011;18778;47.610;9.776;2023-03-23T16:43:05;2.50;;;2.17;;
7919;SDS011;18778;47.610;9.776;2023-03-23T16:45:30;3.30;;;3.03;;
7919;SDS011;18778;47.610;9.776;2023-03-23T16:47:56;3.87;;;2.90;;
7919;SDS011;18778;47.610;9.776;2023-03-23T16:50:25;4.93;;;3.40;;
7919;SDS011;18778;47.610;9.776;2023-03-23T16:52:52;4.27;;;3.30;;
7919;SDS011;18778;47.610;9.776;2023-03-23T16:55:18;4.80;;;4.20;;
7919;SDS011;18778;47.610;9.776;2023-03-23T16:57:44;7.23;;;4.30;;
7919;SDS011;18778;47.610;9.776;2023-03-23T17:00:11;4.87;;;4.10;;
7919;SDS011;18778;47.610;9.776;2023-03-23T17:02:44;3.83;;;3.43;;
7919;SDS011;18778;47.610;9.776;2023-03-23T17:05:11;4.90;;;3.03;;